Time;durP1;ratioP1;P1;durP2;ratioP2;P2;SDS_P1;SDS_P2;PMS_P1;PMS_P2;Temp;Humidity;BMP_temperature;BMP_pressure;BME280_temperature;BME280_humidity;BME280_pressure;Samples;Min_cycle;Max_cycle;Signal;HPM_P1;HPM_P2
2022/08/12 00:44:27;;;;;;;6.68;4.07;;;19.60;99.90;;;;;;5013226;28;20107;-47
2022/08/12 00:46:59;;;;;;;6.20;3.85;;;19.60;99.90;;;;;;5012858;28;20041;-50
2022/08/12 00:49:27;;;;;;;7.00;3.90;;;19.80;99.90;;;;;;5013289;28;20099;-47
2022/08/12 00:52:06;;;;;;;6.72;3.75;;;19.70;99.90;;;;;;5030273;28;20124;-50
2022/08/12 00:54:51;;;;;;;9.23;4.00;;;19.70;99.90;;;;;;5013599;28;20124;-51
2022/08/12 00:57:20;;;;;;;6.57;3.80;;;19.70;99.90;;;;;;5030323;28;20041;-49
2022/08/12 00:59:49;;;;;;;8.05;3.72;;;19.70;99.90;;;;;;5029519;28;20033;-50
2022/08/12 01:02:37;;;;;;;8.40;3.65;;;19.60;99.90;;;;;;4995442;28;20058;-52
2022/08/12 01:13:31;;;;;;;10.07;3.97;;;19.70;99.90;;;;;;4990971;28;20052;-52
2022/08/12 01:15:59;;;;;;;7.80;3.65;;;19.70;99.90;;;;;;4990596;28;20046;-49
2022/08/12 01:18:27;;;;;;;7.18;3.88;;;19.70;99.90;;;;;;4991153;28;20046;-51
2022/08/12 01:21:27;;;;;;;7.18;3.90;;;19.60;99.90;;;;;;4990452;28;20049;-47
2022/08/12 01:24:25;;;;;;;8.30;3.90;;;19.60;99.90;;;;;;4972658;28;20054;-51
2022/08/12 01:26:53;;;;;;;8.70;3.78;;;19.60;99.90;;;;;;4990288;28;20042;-50
2022/08/12 01:29:26;;;;;;;6.65;3.92;;;19.60;99.90;;;;;;4990973;28;20046;-48
2022/08/12 01:31:56;;;;;;;6.07;3.80;;;19.60;99.90;;;;;;4973153;28;20513;-50
2022/08/12 01:34:35;;;;;;;8.27;4.15;;;19.60;99.90;;;;;;4973339;28;20094;-50
2022/08/12 01:37:03;;;;;;;5.97;4.10;;;19.50;99.90;;;;;;4990323;28;20048;-50
2022/08/12 01:39:41;;;;;;;6.05;3.78;;;19.50;99.90;;;;;;4990971;28;20042;-51
2022/08/12 01:42:09;;;;;;;7.05;3.92;;;19.50;99.90;;;;;;4990755;28;20038;-49
2022/08/12 01:44:36;;;;;;;5.85;3.95;;;19.40;99.90;;;;;;4990641;28;20035;-48
2022/08/12 01:47:17;;;;;;;7.72;4.15;;;19.50;99.90;;;;;;4973112;28;20473;-47
2022/08/12 01:50:20;;;;;;;9.18;4.55;;;19.40;99.90;;;;;;4972852;28;20054;-53
2022/08/12 01:53:09;;;;;;;9.75;4.28;;;19.10;99.90;;;;;;4973143;28;20440;-48
2022/08/12 01:55:38;;;;;;;10.45;4.20;;;19.20;99.90;;;;;;4973196;28;20051;-51
2022/08/12 01:59:45;;;;;;;6.72;3.97;;;19.20;99.90;;;;;;4990238;28;20047;-58
2022/08/12 02:01:23;;;;;;;10.30;4.43;;;19.20;99.90;;;;;;4993738;28;20058;-57
2022/08/12 02:13:13;;;;;;;10.35;5.00;;;19.00;99.90;;;;;;5012448;28;20061;-57
2022/08/12 02:16:00;;;;;;;10.93;4.82;;;18.70;99.90;;;;;;5014188;28;20105;-58
2022/08/12 02:18:59;;;;;;;11.20;4.90;;;18.90;99.90;;;;;;5013310;28;20046;-57
2022/08/12 02:21:43;;;;;;;8.07;4.63;;;18.70;99.90;;;;;;5014001;28;20048;-57
2022/08/12 02:24:18;;;;;;;6.75;4.50;;;18.90;99.90;;;;;;5013806;28;20137;-58
2022/08/12 02:26:47;;;;;;;12.23;4.63;;;18.80;99.90;;;;;;5013459;28;20038;-58
2022/08/12 02:29:13;;;;;;;6.90;4.75;;;18.80;99.90;;;;;;5013917;28;20108;-58
2022/08/12 02:31:42;;;;;;;11.65;5.00;;;18.80;99.90;;;;;;5013221;28;20096;-58
2022/08/12 02:34:08;;;;;;;7.70;4.90;;;18.70;99.90;;;;;;5013002;28;20125;-58
2022/08/12 02:36:36;;;;;;;12.05;4.68;;;18.70;99.90;;;;;;5014037;28;20130;-58
2022/08/12 02:39:02;;;;;;;7.50;4.80;;;18.50;99.90;;;;;;5013029;28;20041;-58
2022/08/12 02:41:31;;;;;;;8.02;4.80;;;18.60;99.90;;;;;;5013551;28;20056;-57
2022/08/12 02:44:06;;;;;;;7.47;5.03;;;18.60;99.90;;;;;;4995206;28;20041;-57
2022/08/12 02:46:34;;;;;;;7.63;4.90;;;18.60;99.90;;;;;;5013223;28;20041;-58
2022/08/12 02:49:04;;;;;;;9.57;4.70;;;18.60;99.90;;;;;;5012917;28;20049;-58
2022/08/12 02:51:37;;;;;;;6.60;5.15;;;18.60;99.90;;;;;;4995888;28;20050;-51
2022/08/12 02:54:04;;;;;;;8.73;5.28;;;18.50;99.90;;;;;;5013058;28;20042;-52
2022/08/12 02:56:31;;;;;;;10.70;5.70;;;18.50;99.90;;;;;;5013378;28;20521;-51
2022/08/12 02:58:58;;;;;;;9.55;5.63;;;18.50;99.90;;;;;;5012561;28;20046;-51
2022/08/12 03:01:32;;;;;;;7.95;5.30;;;18.50;99.90;;;;;;5013095;28;20383;-51
2022/08/12 03:04:02;;;;;;;7.47;5.90;;;18.40;99.90;;;;;;5012301;28;20042;-52
2022/08/12 03:06:37;;;;;;;10.52;5.38;;;18.40;99.90;;;;;;5013299;28;20441;-49
2022/08/12 03:09:05;;;;;;;8.52;5.30;;;18.40;99.90;;;;;;4994885;28;20057;-51
2022/08/12 03:11:38;;;;;;;12.43;5.38;;;18.40;99.90;;;;;;4995630;28;20046;-51
2022/08/12 03:14:09;;;;;;;7.03;5.40;;;18.40;99.90;;;;;;4979068;28;20085;-51
2022/08/12 03:16:35;;;;;;;9.88;5.40;;;18.40;99.90;;;;;;5012920;28;20061;-52
2022/08/12 03:19:02;;;;;;;10.05;5.20;;;18.30;99.90;;;;;;4994637;28;20435;-48
2022/08/12 03:21:31;;;;;;;9.57;5.13;;;18.30;99.90;;;;;;5013038;28;20401;-50
2022/08/12 03:23:59;;;;;;;9.75;5.60;;;18.30;99.90;;;;;;5011744;28;20486;-51
2022/08/12 03:26:28;;;;;;;8.02;5.35;;;18.10;99.90;;;;;;5012864;28;20045;-51
2022/08/12 03:28:57;;;;;;;16.20;5.45;;;18.30;99.90;;;;;;5011793;28;20046;-48
2022/08/12 03:31:32;;;;;;;6.90;5.20;;;18.30;99.90;;;;;;5012305;28;20386;-48
2022/08/12 03:34:06;;;;;;;9.55;5.45;;;18.20;99.90;;;;;;4994457;28;20042;-50
2022/08/12 03:36:35;;;;;;;13.65;5.40;;;18.30;99.90;;;;;;5013226;28;20045;-52
2022/08/12 03:42:09;;;;;;;9.48;5.35;;;18.20;99.90;;;;;;4994699;28;20057;-50
2022/08/12 04:01:54;;;;;;;6.32;4.10;;;18.00;99.90;;;;;;4993896;28;20058;-47
2022/08/12 04:04:22;;;;;;;7.97;4.10;;;17.90;99.90;;;;;;5011825;28;20104;-49
2022/08/12 04:06:49;;;;;;;12.48;4.10;;;17.90;99.90;;;;;;5011385;28;20041;-50
2022/08/12 04:09:19;;;;;;;5.72;4.00;;;17.80;99.90;;;;;;5011880;28;20042;-51
2022/08/12 04:14:30;;;;;;;6.47;3.90;;;17.70;99.90;;;;;;5011326;28;20088;-50
2022/08/12 04:16:56;;;;;;;5.95;4.30;;;17.60;99.90;;;;;;5011197;28;20121;-49
2022/08/12 04:19:23;;;;;;;8.23;4.70;;;17.60;99.90;;;;;;5011801;28;20037;-50
2022/08/12 04:21:49;;;;;;;11.25;4.80;;;17.60;99.90;;;;;;4993464;28;20507;-50
2022/08/12 04:24:17;;;;;;;8.63;4.72;;;17.60;99.90;;;;;;5012047;28;20034;-49
2022/08/12 04:26:43;;;;;;;7.78;4.40;;;17.70;99.90;;;;;;5011120;28;20042;-50
2022/08/12 04:29:09;;;;;;;10.27;5.10;;;17.60;99.90;;;;;;5010531;28;20037;-48
2022/08/12 04:31:42;;;;;;;10.38;5.20;;;17.60;99.90;;;;;;5011560;28;20409;-51
2022/08/12 04:34:13;;;;;;;11.15;5.57;;;17.60;99.90;;;;;;5010526;28;20047;-51
2022/08/12 04:36:40;;;;;;;7.45;4.65;;;17.60;99.90;;;;;;5010816;28;20054;-51
2022/08/12 04:39:09;;;;;;;10.05;5.53;;;17.70;99.90;;;;;;4993485;28;20112;-50
2022/08/12 04:41:36;;;;;;;11.40;5.22;;;17.70;99.90;;;;;;5011571;28;20034;-52
2022/08/12 04:44:03;;;;;;;10.98;5.30;;;17.40;99.90;;;;;;4993092;28;20402;-50
2022/08/12 04:46:30;;;;;;;12.15;5.13;;;17.70;99.90;;;;;;5010802;28;20450;-48
2022/08/12 04:48:56;;;;;;;10.35;5.82;;;17.80;99.90;;;;;;4993043;28;20390;-48
2022/08/12 04:51:22;;;;;;;7.13;5.65;;;17.80;99.90;;;;;;4993869;28;20042;-50
2022/08/12 04:53:49;;;;;;;10.52;5.38;;;17.80;99.90;;;;;;4992759;28;20052;-50
2022/08/12 04:56:15;;;;;;;9.23;5.47;;;17.90;99.90;;;;;;5011417;28;20048;-50
2022/08/12 04:58:41;;;;;;;8.40;5.15;;;17.90;99.90;;;;;;4976197;28;20042;-51
2022/08/12 05:01:08;;;;;;;10.73;5.55;;;17.90;99.90;;;;;;5010640;28;20044;-51
2022/08/12 05:03:34;;;;;;;11.80;5.70;;;18.00;99.90;;;;;;4992986;28;20457;-49
2022/08/12 05:06:01;;;;;;;9.40;5.25;;;18.10;99.90;;;;;;5010507;28;20034;-50
2022/08/12 05:08:27;;;;;;;10.68;5.50;;;18.10;99.90;;;;;;5010645;28;20045;-49
2022/08/12 05:10:53;;;;;;;9.90;5.68;;;18.00;99.90;;;;;;5010296;28;20410;-50
2022/08/12 05:13:28;;;;;;;7.57;5.20;;;18.20;99.90;;;;;;5010553;28;20033;-51
2022/08/12 05:15:53;;;;;;;7.45;5.45;;;18.30;99.90;;;;;;5010360;28;20095;-52
2022/08/12 05:18:20;;;;;;;7.45;5.30;;;18.40;99.90;;;;;;5010493;28;20359;-50
2022/08/12 05:20:47;;;;;;;10.52;5.38;;;18.40;99.90;;;;;;5010235;28;20045;-50
2022/08/12 05:23:16;;;;;;;10.18;5.07;;;18.90;99.90;;;;;;5010755;28;20087;-49
2022/08/12 05:25:43;;;;;;;8.18;4.75;;;19.80;99.90;;;;;;4993158;28;20055;-51
2022/08/12 05:28:11;;;;;;;13.75;4.68;;;20.90;99.90;;;;;;4992642;28;20053;-49
2022/08/12 05:30:38;;;;;;;8.45;4.60;;;21.90;99.90;;;;;;5010060;28;20048;-50
2022/08/12 05:33:05;;;;;;;13.68;4.60;;;22.70;99.90;;;;;;4992738;28;20164;-52
2022/08/12 05:35:35;;;;;;;11.82;4.25;;;23.50;99.90;;;;;;5010211;28;20038;-52
2022/08/12 05:40:59;;;;;;;9.60;4.47;;;25.00;99.90;;;;;;5009620;28;20065;-50
2022/08/12 05:43:25;;;;;;;9.55;4.25;;;25.80;97.40;;;;;;4992348;28;20041;-52
2022/08/12 05:45:51;;;;;;;7.40;3.85;;;26.40;93.90;;;;;;5009784;28;20037;-51
2022/08/12 05:48:17;;;;;;;9.63;4.18;;;27.10;91.00;;;;;;4992847;28;20052;-53
2022/08/12 05:50:44;;;;;;;8.35;4.30;;;27.40;84.00;;;;;;5010253;28;20512;-49
2022/08/12 05:53:10;;;;;;;6.57;3.97;;;27.90;80.30;;;;;;4992591;28;20053;-51
2022/08/12 05:55:36;;;;;;;10.00;3.75;;;28.10;75.50;;;;;;5009820;28;20045;-51
2022/08/12 05:58:03;;;;;;;7.55;3.80;;;28.30;73.40;;;;;;5009976;28;20125;-53
2022/08/12 06:00:30;;;;;;;8.10;3.67;;;28.80;70.60;;;;;;5010669;28;20045;-53
2022/08/12 06:03:00;;;;;;;9.40;3.97;;;29.40;68.00;;;;;;5009346;28;20077;-53
2022/08/12 06:05:34;;;;;;;7.55;3.67;;;29.80;65.00;;;;;;5010125;28;20041;-51
2022/08/12 06:08:04;;;;;;;7.80;3.95;;;30.60;62.70;;;;;;5009389;28;20046;-52
2022/08/12 06:10:34;;;;;;;9.57;4.40;;;31.30;60.20;;;;;;5010164;28;20410;-52
2022/08/12 06:13:01;;;;;;;7.22;4.07;;;31.80;57.40;;;;;;5009826;28;20117;-53
2022/08/12 06:15:27;;;;;;;8.48;3.90;;;32.20;55.60;;;;;;5009824;28;20038;-60
2022/08/12 06:17:54;;;;;;;8.18;3.53;;;32.30;54.30;;;;;;5009167;28;20065;-60
2022/08/12 06:20:20;;;;;;;8.18;3.80;;;32.60;53.20;;;;;;5009744;28;20038;-58
2022/08/12 06:22:49;;;;;;;8.00;4.00;;;32.90;52.20;;;;;;5009351;28;20498;-60
2022/08/12 06:25:17;;;;;;;14.40;3.67;;;33.30;50.90;;;;;;5009450;28;20041;-58
2022/08/12 06:27:47;;;;;;;11.35;3.45;;;33.50;50.10;;;;;;5010208;28;20045;-60
2022/08/12 06:30:18;;;;;;;8.75;3.78;;;33.90;49.70;;;;;;5009617;28;20065;-60
2022/08/12 06:32:46;;;;;;;8.95;3.45;;;34.20;48.20;;;;;;5009742;28;20038;-60
2022/08/12 06:35:13;;;;;;;8.80;3.92;;;34.30;47.60;;;;;;5009734;28;20042;-60
2022/08/12 06:37:56;;;;;;;10.05;4.00;;;34.30;47.00;;;;;;5010128;28;20041;-60
2022/08/12 06:43:06;;;;;;;8.68;3.80;;;34.40;46.10;;;;;;5009633;28;20048;-60
2022/08/12 06:45:33;;;;;;;13.60;3.90;;;34.90;45.70;;;;;;5009868;28;20042;-60
2022/08/12 06:48:07;;;;;;;8.23;3.80;;;34.70;45.00;;;;;;5009659;28;20041;-60
2022/08/12 06:50:32;;;;;;;11.93;4.25;;;34.80;44.00;;;;;;5010106;28;20046;-60
2022/08/12 06:52:59;;;;;;;4.97;3.67;;;35.10;44.20;;;;;;5009010;28;20041;-58
2022/08/12 06:55:25;;;;;;;10.65;4.20;;;35.10;43.60;;;;;;4992166;28;20116;-60
2022/08/12 06:57:55;;;;;;;7.00;3.97;;;34.80;43.30;;;;;;5009946;28;20124;-60
2022/08/12 07:00:25;;;;;;;10.10;4.20;;;34.80;43.70;;;;;;5013350;28;20121;-58
2022/08/12 07:02:54;;;;;;;7.07;3.97;;;35.10;43.20;;;;;;5012573;28;20065;-60
2022/08/12 07:05:23;;;;;;;12.57;3.95;;;35.10;43.80;;;;;;5013200;28;20042;-60
2022/08/12 07:07:58;;;;;;;13.70;4.10;;;35.10;42.90;;;;;;5012909;28;20050;-60
2022/08/12 07:10:26;;;;;;;14.23;3.80;;;35.60;42.60;;;;;;5013127;28;20445;-60
2022/08/12 07:12:55;;;;;;;16.08;3.97;;;35.90;42.30;;;;;;5007261;28;20057;-58
2022/08/12 07:15:24;;;;;;;9.50;4.10;;;36.00;41.20;;;;;;5026535;28;20651;-59
2022/08/12 07:17:58;;;;;;;8.88;4.22;;;35.90;41.60;;;;;;5031534;28;20056;-58
2022/08/12 07:20:28;;;;;;;10.75;4.20;;;35.60;41.60;;;;;;5031762;28;20025;-59
2022/08/12 07:22:54;;;;;;;8.25;4.53;;;35.40;41.60;;;;;;5030237;28;20049;-58
2022/08/12 07:25:35;;;;;;;11.50;4.13;;;35.00;41.80;;;;;;5031794;28;20044;-59
2022/08/12 07:28:13;;;;;;;14.00;4.10;;;34.40;42.40;;;;;;5019637;28;20049;-60
2022/08/12 07:30:41;;;;;;;10.38;4.20;;;34.20;43.40;;;;;;5013822;28;20041;-60
2022/08/12 07:33:08;;;;;;;7.00;4.07;;;34.40;43.30;;;;;;5031016;28;20033;-52
2022/08/12 07:35:44;;;;;;;6.78;4.00;;;34.60;43.30;;;;;;5032424;28;20084;-52
2022/08/12 07:38:32;;;;;;;7.35;4.30;;;34.50;43.30;;;;;;5014463;28;20421;-49
2022/08/12 07:41:01;;;;;;;11.50;3.90;;;33.90;43.60;;;;;;5031606;28;20034;-50
2022/08/12 07:43:27;;;;;;;11.40;3.80;;;33.70;44.90;;;;;;5032521;28;20048;-53
2022/08/12 07:45:53;;;;;;;9.57;4.20;;;33.80;45.30;;;;;;5031859;28;20044;-52
2022/08/12 07:48:21;;;;;;;10.98;4.10;;;33.90;45.50;;;;;;4998272;28;20037;-52
2022/08/12 07:50:47;;;;;;;10.93;4.20;;;33.40;46.10;;;;;;5031607;28;20531;-50
2022/08/12 07:53:13;;;;;;;12.27;4.40;;;32.90;46.80;;;;;;5014227;28;20080;-52
2022/08/12 07:55:38;;;;;;;9.48;3.95;;;32.20;48.20;;;;;;5032275;28;20056;-53
2022/08/12 07:58:05;;;;;;;8.68;4.05;;;32.30;49.20;;;;;;5031466;28;20467;-49
2022/08/12 08:00:33;;;;;;;8.77;3.60;;;32.10;49.50;;;;;;5031781;28;20037;-52
2022/08/12 08:02:59;;;;;;;7.30;4.35;;;32.00;50.00;;;;;;5013625;28;20537;-52
2022/08/12 08:05:30;;;;;;;11.00;4.50;;;31.90;50.00;;;;;;5031313;28;20120;-52
2022/08/12 08:08:01;;;;;;;7.07;3.90;;;31.50;50.20;;;;;;5013773;28;20049;-49
2022/08/12 08:10:28;;;;;;;10.70;3.88;;;31.50;50.90;;;;;;5031669;28;20477;-54
2022/08/12 08:12:56;;;;;;;5.25;3.60;;;31.30;51.00;;;;;;5031107;28;20057;-54
2022/08/12 08:15:25;;;;;;;9.70;3.63;;;31.20;51.40;;;;;;5014380;28;20049;-61
2022/08/12 08:17:58;;;;;;;12.68;4.00;;;31.40;51.10;;;;;;5014601;28;20049;-60
2022/08/12 08:20:27;;;;;;;12.07;4.25;;;31.50;51.10;;;;;;5032890;28;20053;-61
2022/08/12 08:22:54;;;;;;;9.07;3.60;;;31.50;50.80;;;;;;5030796;28;20124;-56
2022/08/12 08:25:20;;;;;;;10.88;3.80;;;31.60;50.80;;;;;;5031429;28;20125;-55
2022/08/12 08:27:46;;;;;;;8.77;3.58;;;31.70;50.60;;;;;;5030990;28;20041;-55
2022/08/12 08:30:13;;;;;;;5.20;3.50;;;31.80;50.10;;;;;;5031358;28;20033;-61
2022/08/12 08:32:39;;;;;;;8.35;3.70;;;31.70;49.60;;;;;;5032139;28;20500;-60
2022/08/12 08:35:09;;;;;;;10.95;3.65;;;31.50;49.60;;;;;;5014421;28;20124;-60
2022/08/12 08:37:35;;;;;;;12.40;3.55;;;31.30;50.00;;;;;;5031720;28;20116;-59
2022/08/12 08:42:35;;;;;;;13.60;3.30;;;31.50;50.30;;;;;;5030980;28;20037;-59
2022/08/12 08:42:46;;;;;;;5.80;3.28;;;31.80;49.80;;;;;;5030705;28;20507;-59
2022/08/12 08:45:12;;;;;;;10.70;3.10;;;31.70;49.30;;;;;;5031266;28;20038;-59
2022/08/12 08:47:45;;;;;;;8.68;3.30;;;31.90;49.40;;;;;;5031428;28;20037;-61
2022/08/12 08:50:15;;;;;;;6.80;3.30;;;31.90;48.70;;;;;;5013390;28;20099;-59
2022/08/12 08:52:44;;;;;;;6.30;3.40;;;31.60;48.80;;;;;;5031188;28;20060;-59
2022/08/12 08:55:14;;;;;;;8.55;3.38;;;31.60;49.60;;;;;;5031420;28;20040;-59
2022/08/12 08:57:44;;;;;;;9.15;3.40;;;31.50;49.20;;;;;;5031603;28;20038;-61
2022/08/12 09:00:14;;;;;;;10.38;3.35;;;31.20;48.60;;;;;;5031377;28;20112;-59
2022/08/12 09:02:39;;;;;;;8.77;3.42;;;30.90;48.90;;;;;;5030817;28;20133;-59
2022/08/12 09:05:05;;;;;;;10.00;3.33;;;30.80;49.60;;;;;;5030428;28;20120;-60
2022/08/12 09:07:43;;;;;;;8.70;3.30;;;30.80;50.30;;;;;;5013377;28;20037;-60
2022/08/12 09:10:11;;;;;;;11.35;3.22;;;31.00;51.00;;;;;;5030847;28;20038;-60
2022/08/12 09:15:24;;;;;;;10.38;3.20;;;30.90;50.70;;;;;;5030802;28;20156;-55
2022/08/12 09:17:54;;;;;;;8.35;3.30;;;30.80;50.90;;;;;;5012224;28;20124;-56
2022/08/12 09:20:25;;;;;;;6.68;3.53;;;30.70;51.10;;;;;;5030288;28;20067;-53
2022/08/12 09:22:51;;;;;;;9.98;3.30;;;30.60;51.50;;;;;;5030215;28;20033;-48
2022/08/12 09:25:17;;;;;;;8.23;3.05;;;30.50;50.70;;;;;;5030264;28;20041;-56
2022/08/12 09:27:43;;;;;;;8.88;3.10;;;30.50;50.90;;;;;;5030342;28;20041;-60
2022/08/12 09:30:14;;;;;;;13.77;3.40;;;30.60;50.40;;;;;;5029742;28;20029;-60
2022/08/12 09:32:49;;;;;;;8.65;3.35;;;30.50;50.10;;;;;;5029872;28;20477;-58
2022/08/12 09:35:19;;;;;;;10.40;3.20;;;30.60;50.10;;;;;;5012912;28;20120;-59
2022/08/12 09:37:47;;;;;;;6.63;3.08;;;30.50;50.40;;;;;;5029713;28;20445;-58
2022/08/12 09:40:14;;;;;;;10.20;3.30;;;30.60;49.90;;;;;;5030300;28;20037;-61
2022/08/12 09:45:24;;;;;;;13.70;3.50;;;30.80;49.60;;;;;;5030707;28;20594;-58
2022/08/12 09:47:51;;;;;;;6.85;3.45;;;30.90;49.80;;;;;;5029624;28;20104;-58
2022/08/12 09:50:18;;;;;;;8.65;3.42;;;30.80;48.60;;;;;;5030290;28;20034;-58
2022/08/12 09:52:51;;;;;;;11.55;3.15;;;30.70;48.40;;;;;;5012716;28;20409;-58
2022/08/12 09:55:18;;;;;;;9.52;3.28;;;30.80;48.20;;;;;;5031356;28;20041;-58
2022/08/12 09:57:44;;;;;;;9.38;2.95;;;30.90;48.00;;;;;;5030448;28;20124;-58
2022/08/12 10:00:11;;;;;;;8.70;3.40;;;30.90;47.40;;;;;;5030173;28;20535;-53
2022/08/12 10:02:37;;;;;;;7.43;3.30;;;31.00;47.20;;;;;;5029333;28;20095;-55
2022/08/12 10:05:05;;;;;;;8.18;3.10;;;30.90;47.40;;;;;;5029297;28;20048;-54
2022/08/12 10:07:31;;;;;;;10.77;3.47;;;31.00;47.80;;;;;;5030234;28;20033;-54
2022/08/12 10:09:56;;;;;;;8.48;3.40;;;30.90;48.30;;;;;;5029286;28;20096;-52
2022/08/12 10:15:06;;;;;;;6.33;3.23;;;31.00;48.20;;;;;;5029600;28;20049;-50
2022/08/12 10:17:32;;;;;;;8.32;3.30;;;31.20;48.10;;;;;;5029390;28;20041;-54
2022/08/12 10:19:58;;;;;;;12.18;3.20;;;31.30;47.90;;;;;;5029377;28;20261;-53
2022/08/12 10:22:23;;;;;;;5.97;2.95;;;31.30;48.00;;;;;;5029931;28;20040;-54
2022/08/12 10:29:35;;;;;;;5.88;2.80;;;31.40;47.60;;;;;;5006335;28;20435;-52
2022/08/12 10:30:20;;;;;;;14.52;3.17;;;31.40;45.20;;;;;;5027921;28;20050;-52
2022/08/12 10:32:58;;;;;;;6.35;2.67;;;31.50;44.80;;;;;;5028607;28;20043;-53
2022/08/12 10:35:31;;;;;;;9.57;3.00;;;31.50;43.40;;;;;;5031683;28;20041;-54
2022/08/12 10:38:00;;;;;;;9.50;2.63;;;31.50;44.20;;;;;;5032124;28;20041;-54
2022/08/12 10:40:28;;;;;;;6.55;2.90;;;31.50;43.80;;;;;;5032039;28;20040;-53
2022/08/12 10:45:37;;;;;;;9.33;2.70;;;31.50;43.10;;;;;;5031805;28;20053;-53
2022/08/12 10:48:04;;;;;;;6.15;2.70;;;31.40;43.60;;;;;;5031829;28;20087;-54
2022/08/12 10:50:30;;;;;;;6.85;2.80;;;31.50;43.10;;;;;;5032174;28;20481;-54
2022/08/12 10:52:56;;;;;;;9.82;2.80;;;31.60;43.40;;;;;;5013752;28;20064;-54
2022/08/12 10:55:22;;;;;;;6.38;2.45;;;31.70;42.50;;;;;;5032261;28;20045;-54
2022/08/12 10:57:48;;;;;;;6.38;2.85;;;31.80;42.30;;;;;;5031520;28;20459;-54
2022/08/12 11:00:14;;;;;;;8.77;2.67;;;31.60;41.80;;;;;;5031171;28;20395;-54
2022/08/12 11:02:53;;;;;;;3.72;2.50;;;31.60;41.80;;;;;;5014007;28;20056;-53
2022/08/12 11:05:19;;;;;;;8.32;2.72;;;31.60;41.30;;;;;;5032041;28;20050;-53
2022/08/12 11:07:47;;;;;;;5.13;2.78;;;31.60;41.80;;;;;;5031562;28;20049;-54
2022/08/12 11:10:12;;;;;;;4.00;2.55;;;31.60;41.70;;;;;;5030735;28;20552;-54
2022/08/12 11:12:44;;;;;;;6.13;2.80;;;31.70;41.60;;;;;;5032547;28;20117;-54
2022/08/12 11:15:10;;;;;;;6.60;2.60;;;31.80;41.00;;;;;;5033144;28;20072;-54
2022/08/12 11:17:36;;;;;;;10.32;2.60;;;31.90;40.90;;;;;;5032256;28;20478;-54
2022/08/12 11:20:02;;;;;;;11.18;2.85;;;31.90;40.70;;;;;;5031688;28;20116;-54
2022/08/12 11:22:28;;;;;;;5.15;2.70;;;31.90;40.70;;;;;;5015531;28;20073;-51
2022/08/12 11:24:54;;;;;;;6.80;2.55;;;31.90;40.70;;;;;;5031902;28;20095;-50
2022/08/12 11:27:20;;;;;;;7.97;2.75;;;31.90;40.80;;;;;;5033001;28;20515;-51
2022/08/12 11:29:45;;;;;;;9.85;2.88;;;32.00;40.80;;;;;;5031163;28;20148;-51
2022/08/12 11:32:11;;;;;;;5.60;2.80;;;32.10;41.10;;;;;;5032549;28;20041;-52
2022/08/12 11:34:36;;;;;;;10.52;2.90;;;32.30;40.90;;;;;;5015159;28;20079;-51
2022/08/12 11:37:06;;;;;;;6.00;2.72;;;32.40;40.30;;;;;;5032894;28;20045;-52
2022/08/12 11:39:32;;;;;;;9.23;2.70;;;32.40;39.70;;;;;;5032961;28;20422;-51
2022/08/12 11:42:01;;;;;;;9.93;2.55;;;32.40;40.30;;;;;;5032481;28;20083;-52
2022/08/12 11:44:27;;;;;;;8.45;3.10;;;32.60;40.20;;;;;;5014547;28;20092;-50
2022/08/12 11:46:53;;;;;;;9.15;3.00;;;32.80;40.10;;;;;;5032502;28;20095;-52
2022/08/12 11:49:28;;;;;;;7.95;3.20;;;32.80;39.80;;;;;;5032901;28;20045;-49
2022/08/12 11:51:54;;;;;;;10.07;3.00;;;32.70;39.90;;;;;;5032036;28;20052;-60
2022/08/12 11:54:20;;;;;;;8.27;2.80;;;32.70;40.10;;;;;;5033139;28;20038;-60
2022/08/12 11:56:45;;;;;;;7.82;2.95;;;32.80;39.50;;;;;;5032787;28;20048;-61
2022/08/12 11:59:11;;;;;;;9.70;3.10;;;32.70;39.10;;;;;;5032265;28;20073;-61
2022/08/12 12:01:36;;;;;;;7.68;3.13;;;32.60;39.10;;;;;;5032658;28;20107;-60
2022/08/12 12:04:02;;;;;;;11.10;3.05;;;32.60;39.20;;;;;;5032374;28;20045;-61
2022/08/12 12:06:28;;;;;;;8.65;2.80;;;32.60;39.20;;;;;;5032394;28;20438;-61
2022/08/12 12:08:54;;;;;;;5.65;2.95;;;32.80;39.60;;;;;;5032263;28;20052;-61
2022/08/12 12:11:20;;;;;;;11.27;3.40;;;33.00;39.60;;;;;;5032719;28;20033;-61
2022/08/12 12:13:46;;;;;;;6.38;3.00;;;33.10;39.80;;;;;;5031720;28;20099;-61
2022/08/12 12:16:12;;;;;;;8.77;3.30;;;33.40;39.80;;;;;;5032815;28;20045;-61
2022/08/12 12:18:38;;;;;;;8.65;2.83;;;33.50;39.30;;;;;;5014665;28;20041;-61
2022/08/12 12:21:06;;;;;;;11.55;4.00;;;33.40;38.80;;;;;;5014657;28;20057;-61
2022/08/12 12:23:33;;;;;;;5.85;3.30;;;33.30;38.90;;;;;;5032405;28;20040;-61
2022/08/12 12:25:59;;;;;;;8.45;3.30;;;33.40;38.80;;;;;;5032122;28;20124;-61
2022/08/12 12:28:25;;;;;;;9.82;3.50;;;33.30;38.20;;;;;;5031949;28;20500;-61
2022/08/12 12:30:51;;;;;;;7.75;3.00;;;33.20;38.40;;;;;;5014006;28;20046;-63
2022/08/12 12:33:17;;;;;;;7.88;3.20;;;33.20;38.30;;;;;;5032089;28;20042;-63
2022/08/12 12:35:42;;;;;;;6.72;3.15;;;33.10;38.20;;;;;;5031695;28;20662;-63
2022/08/12 12:38:10;;;;;;;5.38;3.53;;;33.30;38.30;;;;;;5031861;28;20536;-63
2022/08/12 12:40:38;;;;;;;5.35;3.03;;;33.30;38.00;;;;;;5031953;28;20061;-63
2022/08/12 12:43:04;;;;;;;8.10;3.20;;;33.20;37.90;;;;;;5031202;28;20045;-63
2022/08/12 12:45:31;;;;;;;7.40;3.67;;;33.00;38.10;;;;;;5031796;28;20049;-63
2022/08/12 12:47:58;;;;;;;7.40;3.50;;;33.00;38.30;;;;;;5031189;28;20038;-62
2022/08/12 12:50:37;;;;;;;11.18;3.25;;;32.90;38.40;;;;;;5031516;28;20061;-62
2022/08/12 12:53:03;;;;;;;10.20;3.45;;;32.90;38.50;;;;;;5031033;28;20041;-63
2022/08/12 12:55:30;;;;;;;7.80;3.10;;;33.00;38.70;;;;;;5030329;28;20041;-62
2022/08/12 12:57:57;;;;;;;8.27;3.20;;;33.10;39.00;;;;;;5013260;28;20045;-63
2022/08/12 13:00:24;;;;;;;7.82;3.50;;;33.20;38.60;;;;;;5031519;28;20059;-62
2022/08/12 13:02:51;;;;;;;9.35;3.33;;;33.30;38.40;;;;;;5012910;28;20064;-63
2022/08/12 13:05:24;;;;;;;6.80;2.90;;;33.40;38.10;;;;;;5013473;28;20053;-63
2022/08/12 13:07:53;;;;;;;10.77;3.10;;;33.50;38.10;;;;;;5030852;28;20046;-63
2022/08/12 13:10:22;;;;;;;7.45;3.13;;;33.60;38.00;;;;;;5031126;28;20042;-63
2022/08/12 13:12:49;;;;;;;6.60;3.30;;;33.80;38.00;;;;;;5030702;28;20041;-62
2022/08/12 13:15:15;;;;;;;8.02;3.58;;;33.90;37.50;;;;;;5013426;28;20393;-62
2022/08/12 13:17:49;;;;;;;9.00;3.40;;;33.90;37.30;;;;;;5031049;28;20450;-63
2022/08/12 13:20:16;;;;;;;6.57;3.35;;;34.00;37.40;;;;;;5013490;28;20103;-63
2022/08/12 13:22:43;;;;;;;8.45;3.58;;;34.10;37.60;;;;;;5031077;28;20116;-62
2022/08/12 13:25:09;;;;;;;4.93;3.42;;;34.10;37.50;;;;;;5030367;28;20120;-62
2022/08/12 13:27:40;;;;;;;12.85;3.83;;;34.20;37.50;;;;;;5030556;28;20121;-63
2022/08/12 13:30:11;;;;;;;8.63;3.50;;;34.20;37.00;;;;;;5013192;28;20056;-63
2022/08/12 13:32:40;;;;;;;6.63;3.20;;;34.00;37.00;;;;;;5031355;28;20099;-62
2022/08/12 13:35:07;;;;;;;7.65;3.20;;;33.90;37.20;;;;;;5030038;28;20034;-63
2022/08/12 13:37:32;;;;;;;5.78;3.40;;;33.90;37.10;;;;;;5030563;28;20041;-62
2022/08/12 13:39:58;;;;;;;5.90;3.10;;;33.90;37.30;;;;;;5012004;28;20045;-61
2022/08/12 13:42:24;;;;;;;5.82;3.38;;;33.90;37.10;;;;;;5030839;28;20033;-61
2022/08/12 13:44:51;;;;;;;8.40;2.92;;;33.80;36.90;;;;;;5012742;28;20069;-61
2022/08/12 13:47:20;;;;;;;6.13;3.33;;;33.70;37.20;;;;;;4996286;28;20044;-62
2022/08/12 13:49:51;;;;;;;4.90;3.20;;;33.60;37.20;;;;;;4991712;28;20049;-51
2022/08/12 13:52:18;;;;;;;11.48;3.33;;;33.60;37.20;;;;;;5029352;28;20091;-52
2022/08/12 13:54:46;;;;;;;8.15;3.30;;;33.60;37.30;;;;;;5028076;28;20049;-51
2022/08/12 13:57:13;;;;;;;6.90;3.22;;;33.70;38.60;;;;;;5028999;28;20046;-52
2022/08/12 13:59:40;;;;;;;10.15;3.30;;;33.90;38.80;;;;;;5028885;28;20083;-52
2022/08/12 14:02:10;;;;;;;5.75;3.15;;;34.10;37.80;;;;;;5012120;28;20056;-53
2022/08/12 14:04:38;;;;;;;8.15;3.00;;;34.20;37.20;;;;;;4996270;28;20038;-53
2022/08/12 14:07:04;;;;;;;3.88;2.80;;;34.20;36.80;;;;;;5008467;28;20050;-52
2022/08/12 14:10:34;;;;;;;5.80;2.85;;;34.20;36.60;;;;;;5020762;28;20053;-53
2022/08/12 14:12:17;;;;;;;5.82;2.92;;;34.20;36.30;;;;;;5033668;28;20057;-53
2022/08/12 14:14:49;;;;;;;3.67;2.70;;;33.90;36.00;;;;;;5015943;28;20041;-52
2022/08/12 14:17:16;;;;;;;6.45;2.92;;;33.70;36.20;;;;;;5016319;28;20041;-52
2022/08/12 14:20:12;;;;;;;4.75;2.95;;;33.60;36.40;;;;;;5032969;28;20041;-52
2022/08/12 14:22:28;;;;;;;4.65;2.78;;;33.70;36.50;;;;;;5033307;28;20084;-52
2022/08/12 14:24:54;;;;;;;6.70;3.03;;;33.70;36.50;;;;;;5015433;28;20045;-49
2022/08/12 14:27:22;;;;;;;5.57;2.72;;;33.60;36.60;;;;;;5033488;28;20041;-52
2022/08/12 14:29:48;;;;;;;9.35;2.90;;;33.40;36.60;;;;;;5015020;28;20496;-53
2022/08/12 14:32:16;;;;;;;4.15;2.90;;;33.50;36.70;;;;;;5016190;28;20378;-49
2022/08/12 14:34:42;;;;;;;7.03;2.70;;;33.40;36.80;;;;;;5033164;28;20049;-48
2022/08/12 14:37:08;;;;;;;6.70;2.90;;;33.40;36.90;;;;;;5032909;28;20053;-51